sensor_id;sensor_type;location;lat;lon;timestamp;pressure;altitude;pressure_sealevel;temperature;humidity
54854;BME280;40747;49.480;8.658;2023-03-20T00:00:43;100576.69;;;10.10;100.00
54854;BME280;40747;49.480;8.658;2023-03-20T00:03:10;100575.03;;;10.06;100.00
54854;BME280;40747;49.480;8.658;2023-03-20T00:05:36;100574.22;;;10.02;100.00
54854;BME280;40747;49.480;8.658;2023-03-20T00:08:01;100570.06;;;9.93;100.00
54854;BME280;40747;49.480;8.658;2023-03-20T00:10:45;100576.63;;;10.11;100.00
54854;BME280;40747;49.480;8.658;2023-03-20T00:13:24;100588.00;;;10.13;100.00
54854;BME280;40747;49.480;8.658;2023-03-20T00:15:52;100586.22;;;10.14;100.00
54854;BME280;40747;49.480;8.658;2023-03-20T00:18:20;100582.94;;;10.06;100.00
54854;BME280;40747;49.480;8.658;2023-03-20T00:20:48;100589.13;;;10.03;100.00
54854;BME280;40747;49.480;8.658;2023-03-20T00:23:14;100588.84;;;10.15;100.00
54854;BME280;40747;49.480;8.658;2023-03-20T00:25:40;100595.00;;;10.14;100.00
54854;BME280;40747;49.480;8.658;2023-03-20T00:28:38;100598.47;;;10.15;100.00
54854;BME280;40747;49.480;8.658;2023-03-20T00:31:23;100592.19;;;10.22;100.00
54854;BME280;40747;49.480;8.658;2023-03-20T00:33:52;100589.88;;;10.08;99.48
54854;BME280;40747;49.480;8.658;2023-03-20T00:36:18;100595.66;;;10.23;100.00
54854;BME280;40747;49.480;8.658;2023-03-20T00:38:43;100588.69;;;10.20;99.37
54854;BME280;40747;49.480;8.658;2023-03-20T00:41:30;100597.97;;;10.37;99.00
54854;BME280;40747;49.480;8.658;2023-03-20T00:44:01;100600.69;;;10.33;99.14
54854;BME280;40747;49.480;8.658;2023-03-20T00:46:31;100591.72;;;10.42;98.56
54854;BME280;40747;49.480;8.658;2023-03-20T00:48:59;100592.81;;;10.32;99.10
54854;BME280;40747;49.480;8.658;2023-03-20T00:51:25;100601.41;;;10.40;98.12
54854;BME280;40747;49.480;8.658;2023-03-20T00:53:51;100599.56;;;10.44;97.88
54854;BME280;40747;49.480;8.658;2023-03-20T00:56:34;100585.31;;;10.53;97.62
54854;BME280;40747;49.480;8.658;2023-03-20T00:59:01;100592.41;;;10.49;98.70
54854;BME280;40747;49.480;8.658;2023-03-20T01:01:28;100590.03;;;10.38;98.08
54854;BME280;40747;49.480;8.658;2023-03-20T01:03:53;100586.56;;;10.38;97.84
54854;BME280;40747;49.480;8.658;2023-03-20T01:06:19;100584.63;;;10.44;97.96
54854;BME280;40747;49.480;8.658;2023-03-20T01:08:45;100583.81;;;10.41;97.71
54854;BME280;40747;49.480;8.658;2023-03-20T01:11:12;100584.63;;;10.44;97.59
54854;BME280;40747;49.480;8.658;2023-03-20T01:13:39;100584.56;;;10.47;96.96
54854;BME280;40747;49.480;8.658;2023-03-20T01:16:10;100582.94;;;10.42;96.97
54854;BME280;40747;49.480;8.658;2023-03-20T01:18:41;100584.91;;;10.32;97.27
54854;BME280;40747;49.480;8.658;2023-03-20T01:21:07;100584.75;;;10.40;96.91
54854;BME280;40747;49.480;8.658;2023-03-20T01:23:32;100586.63;;;10.33;97.14
54854;BME280;40747;49.480;8.658;2023-03-20T01:25:58;100590.53;;;10.54;97.01
54854;BME280;40747;49.480;8.658;2023-03-20T01:28:24;100587.13;;;10.49;96.58
54854;BME280;40747;49.480;8.658;2023-03-20T01:30:50;100586.19;;;10.52;97.02
54854;BME280;40747;49.480;8.658;2023-03-20T01:33:16;100592.47;;;10.46;96.42
54854;BME280;40747;49.480;8.658;2023-03-20T01:35:42;100596.56;;;10.58;96.21
54854;BME280;40747;49.480;8.658;2023-03-20T01:38:12;100581.72;;;10.55;95.29
54854;BME280;40747;49.480;8.658;2023-03-20T01:40:52;100599.81;;;10.68;95.86
54854;BME280;40747;49.480;8.658;2023-03-20T01:43:20;100602.44;;;10.69;95.39
54854;BME280;40747;49.480;8.658;2023-03-20T01:51:18;100603.59;;;10.59;96.72
54854;BME280;40747;49.480;8.658;2023-03-20T01:53:47;100600.38;;;10.46;96.51
54854;BME280;40747;49.480;8.658;2023-03-20T01:56:14;100606.47;;;10.48;97.47
54854;BME280;40747;49.480;8.658;2023-03-20T01:58:44;100609.91;;;10.52;96.88
54854;BME280;40747;49.480;8.658;2023-03-20T02:01:12;100608.25;;;10.47;97.42
54854;BME280;40747;49.480;8.658;2023-03-20T02:03:39;100614.13;;;10.57;97.17
54854;BME280;40747;49.480;8.658;2023-03-20T02:06:06;100615.97;;;10.54;96.53
54854;BME280;40747;49.480;8.658;2023-03-20T02:08:36;100614.19;;;10.56;96.98
54854;BME280;40747;49.480;8.658;2023-03-20T02:11:05;100612.69;;;10.45;97.04
54854;BME280;40747;49.480;8.658;2023-03-20T02:13:31;100604.88;;;10.41;97.93
54854;BME280;40747;49.480;8.658;2023-03-20T02:16:04;100604.88;;;10.41;97.67
54854;BME280;40747;49.480;8.658;2023-03-20T02:18:30;100602.41;;;10.35;96.78
54854;BME280;40747;49.480;8.658;2023-03-20T02:30:02;100612.38;;;10.58;96.92
54854;BME280;40747;49.480;8.658;2023-03-20T02:38:45;100617.88;;;10.48;97.26
54854;BME280;40747;49.480;8.658;2023-03-20T02:44:07;100622.19;;;10.51;98.14
54854;BME280;40747;49.480;8.658;2023-03-20T02:46:56;100623.13;;;10.50;97.38
54854;BME280;40747;49.480;8.658;2023-03-20T02:49:54;100620.84;;;10.35;99.11
54854;BME280;40747;49.480;8.658;2023-03-20T02:53:30;100617.31;;;10.36;99.09
54854;BME280;40747;49.480;8.658;2023-03-20T02:58:13;100611.31;;;10.29;98.89
54854;BME280;40747;49.480;8.658;2023-03-20T03:03:23;100616.53;;;10.30;99.07
54854;BME280;40747;49.480;8.658;2023-03-20T03:06:00;100617.31;;;10.36;98.20
54854;BME280;40747;49.480;8.658;2023-03-20T03:08:34;100626.06;;;10.38;99.40
54854;BME280;40747;49.480;8.658;2023-03-20T03:11:06;100622.72;;;10.29;99.54
54854;BME280;40747;49.480;8.658;2023-03-20T03:13:35;100622.72;;;10.29;99.13
54854;BME280;40747;49.480;8.658;2023-03-20T03:16:07;100614.19;;;10.20;99.85
54854;BME280;40747;49.480;8.658;2023-03-20T03:18:34;100624.56;;;10.26;99.12
54854;BME280;40747;49.480;8.658;2023-03-20T03:21:04;100625.38;;;10.28;99.11
54854;BME280;40747;49.480;8.658;2023-03-20T03:23:34;100627.19;;;10.26;99.11
54854;BME280;40747;49.480;8.658;2023-03-20T03:26:03;100632.84;;;10.09;100.00
54854;BME280;40747;49.480;8.658;2023-03-20T03:28:41;100592.31;;;9.80;99.54
54854;BME280;40747;49.480;8.658;2023-03-20T03:31:11;100621.56;;;10.04;100.00
54854;BME280;40747;49.480;8.658;2023-03-20T03:33:40;100626.81;;;10.05;100.00
54854;BME280;40747;49.480;8.658;2023-03-20T03:38:41;100617.06;;;10.09;100.00
54854;BME280;40747;49.480;8.658;2023-03-20T03:44:05;100616.66;;;10.26;99.64
54854;BME280;40747;49.480;8.658;2023-03-20T03:46:44;100619.28;;;10.26;99.11
54854;BME280;40747;49.480;8.658;2023-03-20T03:49:14;100623.81;;;10.21;99.41
54854;BME280;40747;49.480;8.658;2023-03-20T03:51:42;100621.28;;;10.16;100.00
54854;BME280;40747;49.480;8.658;2023-03-20T03:54:22;100630.97;;;10.14;99.49
54854;BME280;40747;49.480;8.658;2023-03-20T03:56:50;100610.66;;;10.21;99.51
54854;BME280;40747;49.480;8.658;2023-03-20T03:59:22;100618.50;;;10.22;99.13
54854;BME280;40747;49.480;8.658;2023-03-20T04:01:51;100617.81;;;10.14;99.49
54854;BME280;40747;49.480;8.658;2023-03-20T04:04:17;100630.88;;;10.19;99.43
54854;BME280;40747;49.480;8.658;2023-03-20T04:06:43;100631.06;;;10.11;99.50
54854;BME280;40747;49.480;8.658;2023-03-20T04:09:08;100624.75;;;10.18;98.54
54854;BME280;40747;49.480;8.658;2023-03-20T04:11:35;100628.75;;;10.33;98.84
54854;BME280;40747;49.480;8.658;2023-03-20T04:14:00;100635.09;;;10.24;98.73
54854;BME280;40747;49.480;8.658;2023-03-20T04:16:26;100634.28;;;10.22;99.31
54854;BME280;40747;49.480;8.658;2023-03-20T04:18:51;100629.22;;;10.14;98.85
54854;BME280;40747;49.480;8.658;2023-03-20T04:21:17;100650.06;;;10.24;99.16
54854;BME280;40747;49.480;8.658;2023-03-20T04:23:43;100644.75;;;10.25;99.16
54854;BME280;40747;49.480;8.658;2023-03-20T04:26:09;100612.78;;;10.05;98.57
54854;BME280;40747;49.480;8.658;2023-03-20T04:28:35;100664.72;;;10.36;99.15
54854;BME280;40747;49.480;8.658;2023-03-20T04:31:01;100657.66;;;10.38;99.19
54854;BME280;40747;49.480;8.658;2023-03-20T04:33:27;100658.56;;;10.35;98.38
54854;BME280;40747;49.480;8.658;2023-03-20T04:35:53;100662.88;;;10.39;98.69
54854;BME280;40747;49.480;8.658;2023-03-20T04:38:19;100662.97;;;10.35;99.02
54854;BME280;40747;49.480;8.658;2023-03-20T04:40:46;100662.03;;;10.39;98.33
54854;BME280;40747;49.480;8.658;2023-03-20T04:43:12;100650.59;;;10.40;98.07
54854;BME280;40747;49.480;8.658;2023-03-20T04:45:38;100658.59;;;10.33;98.77
54854;BME280;40747;49.480;8.658;2023-03-20T04:48:03;100649.81;;;10.33;98.28
54854;BME280;40747;49.480;8.658;2023-03-20T04:50:29;100639.47;;;10.27;97.82
54854;BME280;40747;49.480;8.658;2023-03-20T04:52:55;100640.13;;;10.35;98.12
54854;BME280;40747;49.480;8.658;2023-03-20T04:55:20;100641.91;;;10.36;97.54
54854;BME280;40747;49.480;8.658;2023-03-20T04:57:46;100648.81;;;10.40;97.59
54854;BME280;40747;49.480;8.658;2023-03-20T05:00:12;100646.97;;;10.44;97.36
54854;BME280;40747;49.480;8.658;2023-03-20T05:02:37;100652.44;;;10.35;97.78
54854;BME280;40747;49.480;8.658;2023-03-20T05:05:03;100652.50;;;10.31;98.59
54854;BME280;40747;49.480;8.658;2023-03-20T05:07:28;100652.59;;;10.28;98.38
54854;BME280;40747;49.480;8.658;2023-03-20T05:09:53;100668.38;;;10.28;98.43
54854;BME280;40747;49.480;8.658;2023-03-20T05:12:19;100665.66;;;10.31;99.15
54854;BME280;40747;49.480;8.658;2023-03-20T05:14:45;100665.00;;;10.23;99.06
54854;BME280;40747;49.480;8.658;2023-03-20T05:17:10;100673.06;;;10.15;99.04
54854;BME280;40747;49.480;8.658;2023-03-20T05:19:36;100669.59;;;10.13;100.00
54854;BME280;40747;49.480;8.658;2023-03-20T05:22:02;100670.44;;;10.15;100.00
54854;BME280;40747;49.480;8.658;2023-03-20T05:24:28;100661.44;;;10.24;99.57
54854;BME280;40747;49.480;8.658;2023-03-20T05:26:53;100668.66;;;10.16;99.87
54854;BME280;40747;49.480;8.658;2023-03-20T05:29:19;100659.91;;;10.14;99.94
54854;BME280;40747;49.480;8.658;2023-03-20T05:31:44;100672.88;;;10.23;99.04
54854;BME280;40747;49.480;8.658;2023-03-20T05:34:09;100662.38;;;10.22;99.03
54854;BME280;40747;49.480;8.658;2023-03-20T05:36:35;100687.59;;;10.32;99.62
54854;BME280;40747;49.480;8.658;2023-03-20T05:39:00;100682.50;;;10.24;98.99
54854;BME280;40747;49.480;8.658;2023-03-20T05:41:25;100689.34;;;10.31;99.81
54854;BME280;40747;49.480;8.658;2023-03-20T05:43:51;100681.41;;;10.35;99.84
54854;BME280;40747;49.480;8.658;2023-03-20T05:46:17;100677.97;;;10.31;99.08
54854;BME280;40747;49.480;8.658;2023-03-20T05:48:42;100667.63;;;10.22;99.02
54854;BME280;40747;49.480;8.658;2023-03-20T05:51:08;100647.69;;;10.13;98.85
54854;BME280;40747;49.480;8.658;2023-03-20T05:53:33;100659.50;;;10.32;98.49
54854;BME280;40747;49.480;8.658;2023-03-20T05:55:59;100660.75;;;10.54;98.23
54854;BME280;40747;49.480;8.658;2023-03-20T05:58:24;100662.69;;;10.47;98.77
54854;BME280;40747;49.480;8.658;2023-03-20T06:00:50;100667.63;;;10.23;98.48
54854;BME280;40747;49.480;8.658;2023-03-20T06:03:15;100659.38;;;10.39;99.66
54854;BME280;40747;49.480;8.658;2023-03-20T06:05:40;100636.78;;;10.28;98.69
54854;BME280;40747;49.480;8.658;2023-03-20T06:08:06;100654.13;;;10.39;100.00
54854;BME280;40747;49.480;8.658;2023-03-20T06:10:31;100660.72;;;10.17;99.17
54854;BME280;40747;49.480;8.658;2023-03-20T06:12:58;100674.00;;;10.11;100.00
54854;BME280;40747;49.480;8.658;2023-03-20T06:15:25;100671.38;;;10.13;100.00
54854;BME280;40747;49.480;8.658;2023-03-20T06:17:51;100676.28;;;10.28;100.00
54854;BME280;40747;49.480;8.658;2023-03-20T06:20:16;100690.34;;;10.27;99.58
54854;BME280;40747;49.480;8.658;2023-03-20T06:22:41;100693.81;;;10.28;99.50
54854;BME280;40747;49.480;8.658;2023-03-20T06:25:07;100691.59;;;10.11;100.00
54854;BME280;40747;49.480;8.658;2023-03-20T06:27:33;100701.84;;;10.22;100.00
54854;BME280;40747;49.480;8.658;2023-03-20T06:29:58;100707.31;;;10.14;100.00
54854;BME280;40747;49.480;8.658;2023-03-20T06:32:23;100696.00;;;10.09;100.00
54854;BME280;40747;49.480;8.658;2023-03-20T06:34:48;100704.44;;;10.25;100.00
54854;BME280;40747;49.480;8.658;2023-03-20T06:37:14;100693.91;;;10.25;100.00
54854;BME280;40747;49.480;8.658;2023-03-20T06:39:39;100700.06;;;10.24;100.00
54854;BME280;40747;49.480;8.658;2023-03-20T06:42:05;100705.44;;;10.19;100.00
54854;BME280;40747;49.480;8.658;2023-03-20T06:44:31;100707.94;;;10.25;100.00
54854;BME280;40747;49.480;8.658;2023-03-20T06:46:56;100692.44;;;10.11;100.00
54854;BME280;40747;49.480;8.658;2023-03-20T06:49:22;100700.91;;;10.24;100.00
54854;BME280;40747;49.480;8.658;2023-03-20T06:51:47;100718.31;;;10.31;100.00
54854;BME280;40747;49.480;8.658;2023-03-20T06:54:13;100718.22;;;10.38;99.99
54854;BME280;40747;49.480;8.658;2023-03-20T06:56:38;100720.91;;;10.35;100.00
54854;BME280;40747;49.480;8.658;2023-03-20T06:59:03;100727.13;;;10.30;100.00
54854;BME280;40747;49.480;8.658;2023-03-20T07:01:29;100731.69;;;10.22;100.00
54854;BME280;40747;49.480;8.658;2023-03-20T07:03:54;100739.63;;;10.21;100.00
54854;BME280;40747;49.480;8.658;2023-03-20T07:06:19;100731.25;;;10.03;100.00
54854;BME280;40747;49.480;8.658;2023-03-20T07:08:45;100733.63;;;10.14;100.00
54854;BME280;40747;49.480;8.658;2023-03-20T07:11:11;100719.66;;;10.12;100.00
54854;BME280;40747;49.480;8.658;2023-03-20T07:13:36;100726.31;;;10.28;99.91
54854;BME280;40747;49.480;8.658;2023-03-20T07:16:02;100724.56;;;10.27;100.00
54854;BME280;40747;49.480;8.658;2023-03-20T07:18:28;100732.41;;;10.29;100.00
54854;BME280;40747;49.480;8.658;2023-03-20T07:20:58;100724.44;;;10.33;100.00
54854;BME280;40747;49.480;8.658;2023-03-20T07:23:24;100738.63;;;10.26;100.00
54854;BME280;40747;49.480;8.658;2023-03-20T07:25:49;100733.34;;;10.26;100.00
54854;BME280;40747;49.480;8.658;2023-03-20T07:28:15;100726.19;;;10.33;100.00
54854;BME280;40747;49.480;8.658;2023-03-20T07:30:41;100732.13;;;10.43;100.00
54854;BME280;40747;49.480;8.658;2023-03-20T07:33:06;100723.72;;;10.25;100.00
54854;BME280;40747;49.480;8.658;2023-03-20T07:35:31;100721.59;;;10.43;100.00
54854;BME280;40747;49.480;8.658;2023-03-20T07:37:57;100726.91;;;10.41;99.74
54854;BME280;40747;49.480;8.658;2023-03-20T07:40:22;100730.34;;;10.43;100.00
54854;BME280;40747;49.480;8.658;2023-03-20T07:42:47;100711.31;;;10.30;100.00
54854;BME280;40747;49.480;8.658;2023-03-20T07:45:14;100725.38;;;10.31;100.00
54854;BME280;40747;49.480;8.658;2023-03-20T07:47:41;100736.00;;;10.26;100.00
54854;BME280;40747;49.480;8.658;2023-03-20T07:50:06;100734.97;;;10.33;100.00
54854;BME280;40747;49.480;8.658;2023-03-20T07:52:31;100722.44;;;10.45;99.94
54854;BME280;40747;49.480;8.658;2023-03-20T07:54:57;100731.53;;;10.68;99.40
54854;BME280;40747;49.480;8.658;2023-03-20T07:57:22;100722.44;;;10.81;98.91
54854;BME280;40747;49.480;8.658;2023-03-20T07:59:47;100743.63;;;10.76;98.94
54854;BME280;40747;49.480;8.658;2023-03-20T08:02:14;100738.69;;;10.64;99.39
54854;BME280;40747;49.480;8.658;2023-03-20T08:04:40;100743.44;;;10.84;98.77
54854;BME280;40747;49.480;8.658;2023-03-20T08:07:06;100727.66;;;10.82;97.81
54854;BME280;40747;49.480;8.658;2023-03-20T08:09:31;100738.81;;;10.94;98.40
54854;BME280;40747;49.480;8.658;2023-03-20T08:11:56;100731.72;;;10.96;97.93
54854;BME280;40747;49.480;8.658;2023-03-20T08:14:22;100738.75;;;10.95;97.77
54854;BME280;40747;49.480;8.658;2023-03-20T08:16:47;100750.53;;;10.80;97.78
54854;BME280;40747;49.480;8.658;2023-03-20T08:19:12;100751.38;;;10.82;98.22
54854;BME280;40747;49.480;8.658;2023-03-20T08:21:38;100749.59;;;10.83;98.07
54854;BME280;40747;49.480;8.658;2023-03-20T08:24:04;100751.47;;;10.78;98.32
54854;BME280;40747;49.480;8.658;2023-03-20T08:26:30;100750.47;;;10.84;98.09
54854;BME280;40747;49.480;8.658;2023-03-20T08:28:55;100755.91;;;10.77;98.15
54854;BME280;40747;49.480;8.658;2023-03-20T08:31:21;100747.75;;;10.87;97.57
54854;BME280;40747;49.480;8.658;2023-03-20T08:33:47;100753.91;;;10.87;98.21
54854;BME280;40747;49.480;8.658;2023-03-20T08:36:14;100760.09;;;10.86;98.12
54854;BME280;40747;49.480;8.658;2023-03-20T08:38:40;100755.94;;;10.76;98.65
54854;BME280;40747;49.480;8.658;2023-03-20T08:41:06;100755.81;;;10.80;98.34
54854;BME280;40747;49.480;8.658;2023-03-20T08:43:31;100760.00;;;10.89;97.89
54854;BME280;40747;49.480;8.658;2023-03-20T08:45:56;100761.34;;;11.06;97.56
54854;BME280;40747;49.480;8.658;2023-03-20T08:48:22;100757.44;;;10.86;97.83
54854;BME280;40747;49.480;8.658;2023-03-20T08:50:47;100753.44;;;10.70;98.98
54854;BME280;40747;49.480;8.658;2023-03-20T08:53:12;100761.25;;;10.74;98.88
54854;BME280;40747;49.480;8.658;2023-03-20T08:55:38;100767.25;;;10.81;99.06
54854;BME280;40747;49.480;8.658;2023-03-20T08:58:03;100771.91;;;10.70;98.56
54854;BME280;40747;49.480;8.658;2023-03-20T09:00:28;100770.88;;;10.75;99.43
54854;BME280;40747;49.480;8.658;2023-03-20T09:02:54;100768.28;;;10.74;99.58
54854;BME280;40747;49.480;8.658;2023-03-20T09:05:19;100779.19;;;10.96;99.03
54854;BME280;40747;49.480;8.658;2023-03-20T09:07:45;100774.09;;;10.88;98.60
54854;BME280;40747;49.480;8.658;2023-03-20T09:10:10;100789.72;;;10.94;98.76
54854;BME280;40747;49.480;8.658;2023-03-20T09:12:36;100778.56;;;10.85;98.59
54854;BME280;40747;49.480;8.658;2023-03-20T09:15:03;100784.25;;;11.04;98.61
54854;BME280;40747;49.480;8.658;2023-03-20T09:17:28;100784.31;;;11.01;98.63
54854;BME280;40747;49.480;8.658;2023-03-20T09:19:55;100786.84;;;11.05;98.54
54854;BME280;40747;49.480;8.658;2023-03-20T09:22:20;100783.06;;;11.15;97.97
54854;BME280;40747;49.480;8.658;2023-03-20T09:24:46;100791.63;;;11.25;97.72
54854;BME280;40747;49.480;8.658;2023-03-20T09:27:11;100792.28;;;11.34;97.41
54854;BME280;40747;49.480;8.658;2023-03-20T09:29:41;100794.75;;;11.40;97.33
54854;BME280;40747;49.480;8.658;2023-03-20T09:32:06;100796.50;;;11.41;96.92
54854;BME280;40747;49.480;8.658;2023-03-20T09:34:34;100800.84;;;11.42;96.75
54854;BME280;40747;49.480;8.658;2023-03-20T09:37:00;100790.19;;;11.12;97.11
54854;BME280;40747;49.480;8.658;2023-03-20T09:39:27;100789.28;;;11.13;97.83
54854;BME280;40747;49.480;8.658;2023-03-20T09:41:52;100799.22;;;11.36;97.28
54854;BME280;40747;49.480;8.658;2023-03-20T09:44:40;100805.75;;;11.23;98.12
54854;BME280;40747;49.480;8.658;2023-03-20T09:52:57;100798.59;;;11.28;98.21
54854;BME280;40747;49.480;8.658;2023-03-20T09:55:35;100805.78;;;11.54;97.88
54854;BME280;40747;49.480;8.658;2023-03-20T09:58:05;100801.78;;;11.72;97.79
54854;BME280;40747;49.480;8.658;2023-03-20T10:00:34;100801.41;;;11.86;96.09
54854;BME280;40747;49.480;8.658;2023-03-20T10:05:37;100803.97;;;11.88;94.97
54854;BME280;40747;49.480;8.658;2023-03-20T10:08:04;100799.41;;;11.94;94.95
54854;BME280;40747;49.480;8.658;2023-03-20T10:10:56;100786.97;;;12.00;94.65
54854;BME280;40747;49.480;8.658;2023-03-20T10:19:15;100800.75;;;11.78;94.25
54854;BME280;40747;49.480;8.658;2023-03-20T10:21:47;100801.13;;;11.97;93.81
54854;BME280;40747;49.480;8.658;2023-03-20T10:26:50;100804.47;;;12.04;93.07
54854;BME280;40747;49.480;8.658;2023-03-20T10:29:31;100802.91;;;11.96;92.32
54854;BME280;40747;49.480;8.658;2023-03-20T10:32:09;100759.09;;;11.58;92.10
54854;BME280;40747;49.480;8.658;2023-03-20T10:37:44;100784.72;;;12.45;90.76
54854;BME280;40747;49.480;8.658;2023-03-20T10:40:34;100792.31;;;12.56;89.80
54854;BME280;40747;49.480;8.658;2023-03-20T10:43:20;100785.81;;;12.67;87.99
54854;BME280;40747;49.480;8.658;2023-03-20T10:46:06;100789.19;;;12.72;87.93
54854;BME280;40747;49.480;8.658;2023-03-20T10:48:39;100785.59;;;12.46;87.62
54854;BME280;40747;49.480;8.658;2023-03-20T10:51:12;100777.94;;;12.65;86.77
54854;BME280;40747;49.480;8.658;2023-03-20T10:53:51;100778.94;;;12.89;85.78
54854;BME280;40747;49.480;8.658;2023-03-20T10:56:30;100777.91;;;12.93;85.41
54854;BME280;40747;49.480;8.658;2023-03-20T10:59:00;100778.09;;;13.14;86.32
54854;BME280;40747;49.480;8.658;2023-03-20T11:01:27;100780.72;;;13.41;84.05
54854;BME280;40747;49.480;8.658;2023-03-20T11:03:53;100776.84;;;13.51;81.95
54854;BME280;40747;49.480;8.658;2023-03-20T11:06:25;100770.63;;;13.77;82.79
54854;BME280;40747;49.480;8.658;2023-03-20T11:08:52;100777.94;;;13.71;82.16
54854;BME280;40747;49.480;8.658;2023-03-20T11:11:26;100776.91;;;13.23;82.71
54854;BME280;40747;49.480;8.658;2023-03-20T11:13:53;100777.03;;;13.47;82.67
54854;BME280;40747;49.480;8.658;2023-03-20T11:16:21;100782.19;;;13.50;83.33
54854;BME280;40747;49.480;8.658;2023-03-20T11:18:48;100781.00;;;13.58;82.64
54854;BME280;40747;49.480;8.658;2023-03-20T11:21:18;100783.31;;;13.68;81.20
54854;BME280;40747;49.480;8.658;2023-03-20T11:23:44;100783.72;;;13.81;81.10
54854;BME280;40747;49.480;8.658;2023-03-20T11:26:16;100783.28;;;13.93;80.02
54854;BME280;40747;49.480;8.658;2023-03-20T11:28:53;100775.38;;;14.15;80.70
54854;BME280;40747;49.480;8.658;2023-03-20T11:31:29;100776.97;;;14.19;78.14
54854;BME280;40747;49.480;8.658;2023-03-20T11:36:46;100769.53;;;14.75;76.46
54854;BME280;40747;49.480;8.658;2023-03-20T11:39:26;100757.53;;;15.09;76.11
54854;BME280;40747;49.480;8.658;2023-03-20T11:41:53;100756.47;;;15.34;73.88
54854;BME280;40747;49.480;8.658;2023-03-20T11:47:02;100755.47;;;15.76;70.80
54854;BME280;40747;49.480;8.658;2023-03-20T11:49:30;100747.00;;;15.68;71.02
54854;BME280;40747;49.480;8.658;2023-03-20T11:52:08;100753.50;;;15.61;70.60
54854;BME280;40747;49.480;8.658;2023-03-20T11:54:36;100742.47;;;15.70;69.97
54854;BME280;40747;49.480;8.658;2023-03-20T11:57:02;100743.69;;;15.63;69.80
54854;BME280;40747;49.480;8.658;2023-03-20T11:59:34;100734.03;;;15.00;70.64
54854;BME280;40747;49.480;8.658;2023-03-20T12:02:03;100736.00;;;14.95;72.47
54854;BME280;40747;49.480;8.658;2023-03-20T12:04:34;100732.00;;;14.84;71.85
54854;BME280;40747;49.480;8.658;2023-03-20T12:07:13;100733.03;;;14.37;72.03
54854;BME280;40747;49.480;8.658;2023-03-20T12:09:56;100724.91;;;13.72;74.12
54854;BME280;40747;49.480;8.658;2023-03-20T12:15:24;100731.94;;;13.73;74.15
54854;BME280;40747;49.480;8.658;2023-03-20T12:17:56;100729.78;;;13.83;74.14
54854;BME280;40747;49.480;8.658;2023-03-20T12:25:45;100718.78;;;14.40;72.16
54854;BME280;40747;49.480;8.658;2023-03-20T12:28:27;100708.66;;;14.28;72.64
54854;BME280;40747;49.480;8.658;2023-03-20T12:30:56;100706.88;;;14.28;72.00
54854;BME280;40747;49.480;8.658;2023-03-20T12:33:51;100704.56;;;14.42;72.95
54854;BME280;40747;49.480;8.658;2023-03-20T12:36:17;100704.78;;;14.58;73.53
54854;BME280;40747;49.480;8.658;2023-03-20T12:38:45;100692.03;;;14.68;70.60
54854;BME280;40747;49.480;8.658;2023-03-20T12:41:29;100693.72;;;14.91;68.84
54854;BME280;40747;49.480;8.658;2023-03-20T12:44:14;100696.16;;;15.17;68.45
54854;BME280;40747;49.480;8.658;2023-03-20T12:46:45;100691.94;;;15.32;68.08
54854;BME280;40747;49.480;8.658;2023-03-20T12:52:05;100682.34;;;15.08;69.51
54854;BME280;40747;49.480;8.658;2023-03-20T12:55:04;100677.25;;;15.24;68.77
54854;BME280;40747;49.480;8.658;2023-03-20T12:57:40;100682.38;;;15.48;67.44
54854;BME280;40747;49.480;8.658;2023-03-20T13:00:42;100678.63;;;15.52;66.82
54854;BME280;40747;49.480;8.658;2023-03-20T13:06:08;100661.22;;;15.47;68.25
54854;BME280;40747;49.480;8.658;2023-03-20T13:11:50;100661.72;;;15.15;66.29
54854;BME280;40747;49.480;8.658;2023-03-20T13:17:15;100654.84;;;15.70;64.29
54854;BME280;40747;49.480;8.658;2023-03-20T13:22:23;100647.06;;;16.03;62.74
54854;BME280;40747;49.480;8.658;2023-03-20T13:24:54;100635.03;;;15.96;63.11
54854;BME280;40747;49.480;8.658;2023-03-20T13:27:50;100638.34;;;16.01;64.10
54854;BME280;40747;49.480;8.658;2023-03-20T13:30:33;100640.47;;;16.12;62.63
54854;BME280;40747;49.480;8.658;2023-03-20T13:33:19;100635.16;;;15.93;62.41
54854;BME280;40747;49.480;8.658;2023-03-20T13:38:45;100626.06;;;15.99;61.50
54854;BME280;40747;49.480;8.658;2023-03-20T13:41:12;100624.69;;;15.71;60.05
54854;BME280;40747;49.480;8.658;2023-03-20T13:43:47;100617.25;;;15.60;60.40
54854;BME280;40747;49.480;8.658;2023-03-20T13:46:18;100622.88;;;15.52;60.65
54854;BME280;40747;49.480;8.658;2023-03-20T13:48:46;100627.88;;;15.60;61.00
54854;BME280;40747;49.480;8.658;2023-03-20T13:51:30;100609.41;;;15.57;60.82
54854;BME280;40747;49.480;8.658;2023-03-20T13:56:36;100610.56;;;15.32;60.41
54854;BME280;40747;49.480;8.658;2023-03-20T13:59:35;100605.00;;;14.99;60.64
54854;BME280;40747;49.480;8.658;2023-03-20T14:04:32;100603.81;;;14.85;61.71
54854;BME280;40747;49.480;8.658;2023-03-20T14:06:59;100608.56;;;14.98;63.57
54854;BME280;40747;49.480;8.658;2023-03-20T14:09:30;100603.59;;;14.90;61.75
54854;BME280;40747;49.480;8.658;2023-03-20T14:12:05;100601.22;;;14.84;61.74
54854;BME280;40747;49.480;8.658;2023-03-20T14:14:56;100601.00;;;14.88;61.20
54854;BME280;40747;49.480;8.658;2023-03-20T14:17:27;100597.03;;;14.78;61.63
54854;BME280;40747;49.480;8.658;2023-03-20T14:19:55;100586.72;;;14.72;62.90
54854;BME280;40747;49.480;8.658;2023-03-20T14:22:23;100598.09;;;14.74;61.18
54854;BME280;40747;49.480;8.658;2023-03-20T14:24:55;100593.25;;;14.63;61.62
54854;BME280;40747;49.480;8.658;2023-03-20T14:27:24;100588.22;;;14.78;61.43
54854;BME280;40747;49.480;8.658;2023-03-20T14:29:50;100587.16;;;14.82;62.27